sensor_id;sensor_type;location;lat;lon;timestamp;pressure;altitude;pressure_sealevel;temperature;humidity
31337;BME280;22846;42.654;23.314;2024-02-21T00:01:36;95143.63;;;23.61;55.88
31337;BME280;22846;42.654;23.314;2024-02-21T00:04:02;95149.09;;;23.61;56.20
31337;BME280;22846;42.654;23.314;2024-02-21T00:06:27;95145.59;;;23.60;56.25
31337;BME280;22846;42.654;23.314;2024-02-21T00:08:52;95129.06;;;23.48;56.38
31337;BME280;22846;42.654;23.314;2024-02-21T00:11:18;95138.25;;;23.57;55.99
31337;BME280;22846;42.654;23.314;2024-02-21T00:13:43;95141.38;;;23.56;56.18
31337;BME280;22846;42.654;23.314;2024-02-21T00:16:09;95141.53;;;23.49;56.44
31337;BME280;22846;42.654;23.314;2024-02-21T00:18:35;95144.09;;;23.56;56.54
31337;BME280;22846;42.654;23.314;2024-02-21T00:21:01;95143.34;;;23.55;56.79
31337;BME280;22846;42.654;23.314;2024-02-21T00:23:27;95143.78;;;23.54;56.42
31337;BME280;22846;42.654;23.314;2024-02-21T00:25:53;95139.50;;;23.53;56.23
31337;BME280;22846;42.654;23.314;2024-02-21T00:28:19;95137.97;;;23.52;56.63
31337;BME280;22846;42.654;23.314;2024-02-21T00:30:45;95132.66;;;23.45;56.56
31337;BME280;22846;42.654;23.314;2024-02-21T00:33:10;95133.41;;;23.45;56.62
31337;BME280;22846;42.654;23.314;2024-02-21T00:35:35;95101.84;;;23.25;56.63
31337;BME280;22846;42.654;23.314;2024-02-21T00:38:01;95123.75;;;23.41;56.40
31337;BME280;22846;42.654;23.314;2024-02-21T00:40:28;95136.50;;;23.47;56.84
31337;BME280;22846;42.654;23.314;2024-02-21T00:42:53;95140.75;;;23.48;56.67
31337;BME280;22846;42.654;23.314;2024-02-21T00:45:19;95115.72;;;23.34;56.44
31337;BME280;22846;42.654;23.314;2024-02-21T00:47:44;95135.72;;;23.47;56.92
31337;BME280;22846;42.654;23.314;2024-02-21T00:50:09;95135.72;;;23.47;56.90
31337;BME280;22846;42.654;23.314;2024-02-21T00:52:35;95133.41;;;23.45;56.49
31337;BME280;22846;42.654;23.314;2024-02-21T00:55:00;95131.88;;;23.44;56.68
31337;BME280;22846;42.654;23.314;2024-02-21T00:57:26;95127.59;;;23.43;56.84
31337;BME280;22846;42.654;23.314;2024-02-21T00:59:51;95124.13;;;23.43;56.81
31337;BME280;22846;42.654;23.314;2024-02-21T01:02:17;95106.41;;;23.31;56.59
31337;BME280;22846;42.654;23.314;2024-02-21T01:04:42;95100.53;;;23.33;56.82
31337;BME280;22846;42.654;23.314;2024-02-21T01:07:07;95067.38;;;23.15;56.71
31337;BME280;22846;42.654;23.314;2024-02-21T01:09:33;95105.09;;;23.39;56.98
31337;BME280;22846;42.654;23.314;2024-02-21T01:11:58;95083.94;;;23.24;57.04
31337;BME280;22846;42.654;23.314;2024-02-21T01:14:24;95102.38;;;23.39;56.82
31337;BME280;22846;42.654;23.314;2024-02-21T01:16:49;95101.56;;;23.39;56.62
31337;BME280;22846;42.654;23.314;2024-02-21T01:19:14;95098.09;;;23.38;56.88
31337;BME280;22846;42.654;23.314;2024-02-21T01:21:40;95090.81;;;23.32;57.01
31337;BME280;22846;42.654;23.314;2024-02-21T01:24:05;95104.72;;;23.37;56.60
31337;BME280;22846;42.654;23.314;2024-02-21T01:26:30;95106.69;;;23.37;57.13
31337;BME280;22846;42.654;23.314;2024-02-21T01:28:56;95102.44;;;23.36;57.05
31337;BME280;22846;42.654;23.314;2024-02-21T01:31:21;95096.97;;;23.36;56.74
31337;BME280;22846;42.654;23.314;2024-02-21T01:33:46;95093.91;;;23.34;57.13
31337;BME280;22846;42.654;23.314;2024-02-21T01:36:13;95089.19;;;23.34;56.66
31337;BME280;22846;42.654;23.314;2024-02-21T01:38:38;95096.63;;;23.34;57.21
31337;BME280;22846;42.654;23.314;2024-02-21T01:41:03;95089.63;;;23.33;57.11
31337;BME280;22846;42.654;23.314;2024-02-21T01:43:29;95067.72;;;23.17;57.16
31337;BME280;22846;42.654;23.314;2024-02-21T01:45:55;95085.34;;;23.32;57.03
31337;BME280;22846;42.654;23.314;2024-02-21T01:48:22;95081.88;;;23.31;57.03
31337;BME280;22846;42.654;23.314;2024-02-21T01:50:49;95079.91;;;23.32;56.62
31337;BME280;22846;42.654;23.314;2024-02-21T01:53:23;95075.69;;;23.27;57.29
31337;BME280;22846;42.654;23.314;2024-02-21T01:55:50;95078.34;;;23.31;57.14
31337;BME280;22846;42.654;23.314;2024-02-21T01:58:17;95071.88;;;23.25;57.05
31337;BME280;22846;42.654;23.314;2024-02-21T02:00:45;95075.31;;;23.29;56.95
31337;BME280;22846;42.654;23.314;2024-02-21T02:03:11;95076.81;;;23.30;56.87
31337;BME280;22846;42.654;23.314;2024-02-21T02:05:46;95078.03;;;23.29;56.80
31337;BME280;22846;42.654;23.314;2024-02-21T02:08:18;95078.03;;;23.29;57.16
31337;BME280;22846;42.654;23.314;2024-02-21T02:10:44;95075.31;;;23.29;57.04
31337;BME280;22846;42.654;23.314;2024-02-21T02:13:11;95080.75;;;23.29;57.03
31337;BME280;22846;42.654;23.314;2024-02-21T02:15:45;95078.44;;;23.27;57.04
31337;BME280;22846;42.654;23.314;2024-02-21T02:18:11;95078.34;;;23.31;56.62
31337;BME280;22846;42.654;23.314;2024-02-21T02:20:37;95072.56;;;23.29;57.04
31337;BME280;22846;42.654;23.314;2024-02-21T02:25:49;95071.44;;;23.26;57.18
31337;BME280;22846;42.654;23.314;2024-02-21T02:28:17;95062.50;;;23.26;56.87
31337;BME280;22846;42.654;23.314;2024-02-21T02:30:43;95068.78;;;23.23;56.94
31337;BME280;22846;42.654;23.314;2024-02-21T02:33:08;95060.75;;;23.16;57.26
31337;BME280;22846;42.654;23.314;2024-02-21T02:35:34;95066.06;;;23.23;56.87
31337;BME280;22846;42.654;23.314;2024-02-21T02:38:02;95057.88;;;23.23;57.20
31337;BME280;22846;42.654;23.314;2024-02-21T02:40:27;95059.06;;;23.22;57.40
31337;BME280;22846;42.654;23.314;2024-02-21T02:42:52;95058.31;;;23.21;57.39
31337;BME280;22846;42.654;23.314;2024-02-21T02:45:21;95045.22;;;23.13;57.16
31337;BME280;22846;42.654;23.314;2024-02-21T02:47:48;95054.78;;;23.21;56.83
31337;BME280;22846;42.654;23.314;2024-02-21T02:50:14;95060.25;;;23.21;57.20
31337;BME280;22846;42.654;23.314;2024-02-21T02:52:39;95058.72;;;23.20;57.26
31337;BME280;22846;42.654;23.314;2024-02-21T02:55:05;95066.13;;;23.19;56.90
31337;BME280;22846;42.654;23.314;2024-02-21T02:57:31;95063.81;;;23.18;57.13
31337;BME280;22846;42.654;23.314;2024-02-21T02:59:57;95067.31;;;23.18;56.87
31337;BME280;22846;42.654;23.314;2024-02-21T03:02:24;95063.41;;;23.19;57.05
31337;BME280;22846;42.654;23.314;2024-02-21T03:04:49;95062.63;;;23.19;57.27
31337;BME280;22846;42.654;23.314;2024-02-21T03:07:15;95043.44;;;23.03;57.14
31337;BME280;22846;42.654;23.314;2024-02-21T03:09:41;95064.22;;;23.16;56.92
31337;BME280;22846;42.654;23.314;2024-02-21T03:12:09;95065.84;;;23.14;56.78
31337;BME280;22846;42.654;23.314;2024-02-21T03:14:35;95067.72;;;23.17;56.85
31337;BME280;22846;42.654;23.314;2024-02-21T03:17:01;95074.38;;;23.16;56.55
31337;BME280;22846;42.654;23.314;2024-02-21T03:19:27;95059.50;;;22.98;57.03
31337;BME280;22846;42.654;23.314;2024-02-21T03:21:53;95075.56;;;23.15;57.27
31337;BME280;22846;42.654;23.314;2024-02-21T03:24:19;95077.16;;;23.12;56.93
31337;BME280;22846;42.654;23.314;2024-02-21T03:26:44;95071.53;;;23.00;57.18
31337;BME280;22846;42.654;23.314;2024-02-21T03:29:11;95083.72;;;23.15;57.01
31337;BME280;22846;42.654;23.314;2024-02-21T03:31:37;95063.72;;;23.02;56.93
31337;BME280;22846;42.654;23.314;2024-02-21T03:34:02;95082.63;;;23.12;57.21
31337;BME280;22846;42.654;23.314;2024-02-21T03:36:28;95087.28;;;23.12;57.28
31337;BME280;22846;42.654;23.314;2024-02-21T03:38:54;95087.28;;;23.12;57.07
31337;BME280;22846;42.654;23.314;2024-02-21T03:41:20;95085.78;;;23.11;57.27
31337;BME280;22846;42.654;23.314;2024-02-21T03:43:45;95093.94;;;23.11;57.29
31337;BME280;22846;42.654;23.314;2024-02-21T03:46:11;95089.25;;;23.11;57.32
31337;BME280;22846;42.654;23.314;2024-02-21T03:48:36;95103.31;;;23.10;56.98
31337;BME280;22846;42.654;23.314;2024-02-21T03:51:02;95090.44;;;23.10;57.46
31337;BME280;22846;42.654;23.314;2024-02-21T03:53:27;95099.41;;;23.11;57.47
31337;BME280;22846;42.654;23.314;2024-02-21T03:55:54;95097.06;;;23.09;57.16
31337;BME280;22846;42.654;23.314;2024-02-21T03:58:20;95089.81;;;23.00;57.62
31337;BME280;22846;42.654;23.314;2024-02-21T04:00:46;95096.31;;;23.09;57.26
31337;BME280;22846;42.654;23.314;2024-02-21T04:03:11;95093.22;;;23.07;57.02
31337;BME280;22846;42.654;23.314;2024-02-21T04:05:37;95095.13;;;23.10;57.23
31337;BME280;22846;42.654;23.314;2024-02-21T04:08:05;95097.13;;;23.06;57.35
31337;BME280;22846;42.654;23.314;2024-02-21T04:10:31;95097.50;;;23.08;57.42
31337;BME280;22846;42.654;23.314;2024-02-21T04:12:56;95102.59;;;23.06;57.37
31337;BME280;22846;42.654;23.314;2024-02-21T04:15:22;95092.81;;;23.08;57.17
31337;BME280;22846;42.654;23.314;2024-02-21T04:17:47;95091.25;;;23.08;57.13
31337;BME280;22846;42.654;23.314;2024-02-21T04:20:14;95087.41;;;23.05;57.66
31337;BME280;22846;42.654;23.314;2024-02-21T04:22:41;95093.22;;;23.07;57.23
31337;BME280;22846;42.654;23.314;2024-02-21T04:25:06;95085.06;;;23.07;57.42
31337;BME280;22846;42.654;23.314;2024-02-21T04:27:32;95080.81;;;23.03;57.36
31337;BME280;22846;42.654;23.314;2024-02-21T04:29:57;95090.59;;;23.00;57.47
31337;BME280;22846;42.654;23.314;2024-02-21T04:32:23;95104.13;;;23.07;57.28
31337;BME280;22846;42.654;23.314;2024-02-21T04:34:48;95097.13;;;23.06;57.24
31337;BME280;22846;42.654;23.314;2024-02-21T04:37:14;95092.91;;;23.02;57.74
31337;BME280;22846;42.654;23.314;2024-02-21T04:39:39;95092.88;;;23.05;57.39
31337;BME280;22846;42.654;23.314;2024-02-21T04:42:05;95100.28;;;23.05;57.19
31337;BME280;22846;42.654;23.314;2024-02-21T04:44:30;95096.03;;;23.04;57.41
31337;BME280;22846;42.654;23.314;2024-02-21T04:46:56;95095.19;;;23.07;57.28
31337;BME280;22846;42.654;23.314;2024-02-21T04:49:21;95083.28;;;23.20;55.98
31337;BME280;22846;42.654;23.314;2024-02-21T04:51:46;95091.94;;;23.34;56.06
31337;BME280;22846;42.654;23.314;2024-02-21T04:54:12;95098.78;;;23.42;57.45
31337;BME280;22846;42.654;23.314;2024-02-21T04:56:37;95097.59;;;23.43;57.08
31337;BME280;22846;42.654;23.314;2024-02-21T04:59:02;95057.19;;;23.19;56.46
31337;BME280;22846;42.654;23.314;2024-02-21T05:01:28;95095.88;;;23.53;56.46
31337;BME280;22846;42.654;23.314;2024-02-21T05:03:54;95087.72;;;23.69;56.01
31337;BME280;22846;42.654;23.314;2024-02-21T05:06:19;95085.44;;;23.87;55.81
31337;BME280;22846;42.654;23.314;2024-02-21T05:08:45;95069.66;;;23.94;56.21
31337;BME280;22846;42.654;23.314;2024-02-21T05:11:10;95080.81;;;24.19;55.60
31337;BME280;22846;42.654;23.314;2024-02-21T05:13:35;95084.94;;;24.27;55.64
31337;BME280;22846;42.654;23.314;2024-02-21T05:16:01;95085.19;;;24.32;55.07
31337;BME280;22846;42.654;23.314;2024-02-21T05:18:28;95093.97;;;24.40;55.41
31337;BME280;22846;42.654;23.314;2024-02-21T05:20:53;95086.81;;;24.46;54.87
31337;BME280;22846;42.654;23.314;2024-02-21T05:23:19;95085.16;;;24.52;54.46
31337;BME280;22846;42.654;23.314;2024-02-21T05:25:44;95087.34;;;24.57;53.78
31337;BME280;22846;42.654;23.314;2024-02-21T05:28:10;95110.16;;;24.66;53.60
31337;BME280;22846;42.654;23.314;2024-02-21T05:30:35;95103.44;;;24.71;53.40
31337;BME280;22846;42.654;23.314;2024-02-21T05:33:07;95092.50;;;24.71;53.75
31337;BME280;22846;42.654;23.314;2024-02-21T05:35:33;95103.50;;;24.83;53.77
31337;BME280;22846;42.654;23.314;2024-02-21T05:37:59;95096.72;;;24.72;50.76
31337;BME280;22846;42.654;23.314;2024-02-21T05:40:24;95106.91;;;24.87;50.21
31337;BME280;22846;42.654;23.314;2024-02-21T05:42:51;95074.56;;;24.70;50.57
31337;BME280;22846;42.654;23.314;2024-02-21T05:45:17;95081.22;;;24.69;52.06
31337;BME280;22846;42.654;23.314;2024-02-21T05:47:43;95099.97;;;24.82;51.96
31337;BME280;22846;42.654;23.314;2024-02-21T05:50:09;95111.09;;;24.76;52.08
31337;BME280;22846;42.654;23.314;2024-02-21T05:52:35;95107.75;;;24.68;51.76
31337;BME280;22846;42.654;23.314;2024-02-21T05:55:00;95089.91;;;24.48;52.26
31337;BME280;22846;42.654;23.314;2024-02-21T05:57:26;95119.38;;;24.56;52.40
31337;BME280;22846;42.654;23.314;2024-02-21T05:59:51;95119.56;;;24.49;52.39
31337;BME280;22846;42.654;23.314;2024-02-21T06:02:16;95120.84;;;24.41;52.63
31337;BME280;22846;42.654;23.314;2024-02-21T06:04:42;95127.63;;;24.37;52.94
31337;BME280;22846;42.654;23.314;2024-02-21T06:07:11;95125.72;;;24.34;53.59
31337;BME280;22846;42.654;23.314;2024-02-21T06:09:37;95131.69;;;24.29;53.79
31337;BME280;22846;42.654;23.314;2024-02-21T06:12:02;95115.69;;;24.11;53.93
31337;BME280;22846;42.654;23.314;2024-02-21T06:14:28;95126.09;;;24.16;54.08
31337;BME280;22846;42.654;23.314;2024-02-21T06:16:53;95125.91;;;24.07;54.56
31337;BME280;22846;42.654;23.314;2024-02-21T06:19:18;95133.28;;;24.10;54.74
31337;BME280;22846;42.654;23.314;2024-02-21T06:21:44;95133.69;;;24.09;54.62
31337;BME280;22846;42.654;23.314;2024-02-21T06:24:09;95132.41;;;23.97;54.87
31337;BME280;22846;42.654;23.314;2024-02-21T06:26:35;95141.63;;;24.03;55.07
31337;BME280;22846;42.654;23.314;2024-02-21T06:29:00;95146.81;;;23.98;54.98
31337;BME280;22846;42.654;23.314;2024-02-21T06:31:27;95147.56;;;23.98;55.05
31337;BME280;22846;42.654;23.314;2024-02-21T06:33:52;95150.72;;;23.97;54.97
31337;BME280;22846;42.654;23.314;2024-02-21T06:36:18;95144.91;;;23.95;55.07
31337;BME280;22846;42.654;23.314;2024-02-21T06:38:43;95148.06;;;23.93;54.93
31337;BME280;22846;42.654;23.314;2024-02-21T06:41:16;95140.50;;;23.82;55.23
31337;BME280;22846;42.654;23.314;2024-02-21T06:43:42;95158.28;;;23.90;55.13
31337;BME280;22846;42.654;23.314;2024-02-21T06:46:07;95164.16;;;23.88;54.93
31337;BME280;22846;42.654;23.314;2024-02-21T06:48:32;95165.34;;;23.87;54.82
31337;BME280;22846;42.654;23.314;2024-02-21T06:50:58;95169.25;;;23.86;54.71
31337;BME280;22846;42.654;23.314;2024-02-21T06:53:23;95173.63;;;23.84;54.77
31337;BME280;22846;42.654;23.314;2024-02-21T06:55:48;95176.34;;;23.84;55.11
31337;BME280;22846;42.654;23.314;2024-02-21T06:58:14;95181.13;;;23.80;55.11
31337;BME280;22846;42.654;23.314;2024-02-21T07:00:42;95177.19;;;23.81;54.79
31337;BME280;22846;42.654;23.314;2024-02-21T07:03:07;95174.13;;;23.79;54.73
31337;BME280;22846;42.654;23.314;2024-02-21T07:05:33;95171.78;;;23.77;54.87
31337;BME280;22846;42.654;23.314;2024-02-21T07:07:58;95176.50;;;23.77;54.69
31337;BME280;22846;42.654;23.314;2024-02-21T07:10:23;95154.91;;;23.63;55.08
31337;BME280;22846;42.654;23.314;2024-02-21T07:12:49;95153.28;;;23.65;55.21
31337;BME280;22846;42.654;23.314;2024-02-21T07:15:14;95173.41;;;23.75;54.69
31337;BME280;22846;42.654;23.314;2024-02-21T07:17:40;95178.47;;;23.73;55.08
31337;BME280;22846;42.654;23.314;2024-02-21T07:20:06;95177.28;;;23.74;55.39
31337;BME280;22846;42.654;23.314;2024-02-21T07:22:31;95172.25;;;23.72;55.11
31337;BME280;22846;42.654;23.314;2024-02-21T07:24:57;95165.88;;;23.59;55.21
31337;BME280;22846;42.654;23.314;2024-02-21T07:27:22;95183.59;;;23.71;55.28
31337;BME280;22846;42.654;23.314;2024-02-21T07:29:47;95167.16;;;23.55;55.18
31337;BME280;22846;42.654;23.314;2024-02-21T07:32:14;95180.16;;;23.67;54.88
31337;BME280;22846;42.654;23.314;2024-02-21T07:34:39;95182.19;;;23.63;55.50
31337;BME280;22846;42.654;23.314;2024-02-21T07:37:05;95190.72;;;23.65;55.21
31337;BME280;22846;42.654;23.314;2024-02-21T07:39:30;95182.53;;;23.65;55.15
31337;BME280;22846;42.654;23.314;2024-02-21T07:41:56;95184.94;;;23.63;55.28
31337;BME280;22846;42.654;23.314;2024-02-21T07:44:21;95182.59;;;23.61;55.11
31337;BME280;22846;42.654;23.314;2024-02-21T07:46:46;95180.72;;;23.58;55.39
31337;BME280;22846;42.654;23.314;2024-02-21T07:49:12;95186.50;;;23.60;54.95
31337;BME280;22846;42.654;23.314;2024-02-21T07:51:37;95171.53;;;23.49;55.06
31337;BME280;22846;42.654;23.314;2024-02-21T07:54:02;95182.25;;;23.59;55.07
31337;BME280;22846;42.654;23.314;2024-02-21T07:56:29;95182.66;;;23.58;55.37
31337;BME280;22846;42.654;23.314;2024-02-21T07:58:55;95161.81;;;23.48;55.15
31337;BME280;22846;42.654;23.314;2024-02-21T08:01:21;95180.38;;;23.56;54.83
31337;BME280;22846;42.654;23.314;2024-02-21T08:03:46;95181.56;;;23.55;54.99
31337;BME280;22846;42.654;23.314;2024-02-21T08:06:13;95178.06;;;23.55;54.92
31337;BME280;22846;42.654;23.314;2024-02-21T08:08:39;95169.91;;;23.51;55.37
31337;BME280;22846;42.654;23.314;2024-02-21T08:11:04;95177.28;;;23.54;55.23
31337;BME280;22846;42.654;23.314;2024-02-21T08:13:30;95162.66;;;23.45;55.45
31337;BME280;22846;42.654;23.314;2024-02-21T08:15:55;95145.00;;;23.30;55.13
31337;BME280;22846;42.654;23.314;2024-02-21T08:18:22;95156.13;;;23.39;55.14
31337;BME280;22846;42.654;23.314;2024-02-21T08:20:48;95173.00;;;23.53;55.00
31337;BME280;22846;42.654;23.314;2024-02-21T08:23:16;95181.19;;;23.53;55.08
31337;BME280;22846;42.654;23.314;2024-02-21T08:25:41;95172.25;;;23.53;55.02
31337;BME280;22846;42.654;23.314;2024-02-21T08:28:07;95147.63;;;23.37;54.99
31337;BME280;22846;42.654;23.314;2024-02-21T08:30:33;95173.38;;;23.55;54.86
31337;BME280;22846;42.654;23.314;2024-02-21T08:32:59;95161.41;;;23.49;54.21
31337;BME280;22846;42.654;23.314;2024-02-21T08:35:24;95167.47;;;23.57;54.59
31337;BME280;22846;42.654;23.314;2024-02-21T08:37:50;95174.47;;;23.58;54.56
31337;BME280;22846;42.654;23.314;2024-02-21T08:40:15;95163.94;;;23.60;54.40
31337;BME280;22846;42.654;23.314;2024-02-21T08:42:46;95146.91;;;23.52;54.38
31337;BME280;22846;42.654;23.314;2024-02-21T08:45:12;95147.34;;;23.51;54.06
31337;BME280;22846;42.654;23.314;2024-02-21T08:47:41;95145.44;;;23.48;54.26
31337;BME280;22846;42.654;23.314;2024-02-21T08:50:07;95155.81;;;23.56;54.21
31337;BME280;22846;42.654;23.314;2024-02-21T08:52:34;95168.56;;;23.63;54.23
31337;BME280;22846;42.654;23.314;2024-02-21T08:55:00;95165.81;;;23.63;54.43
31337;BME280;22846;42.654;23.314;2024-02-21T08:57:25;95168.56;;;23.63;54.28
31337;BME280;22846;42.654;23.314;2024-02-21T08:59:50;95167.34;;;23.64;54.34
31337;BME280;22846;42.654;23.314;2024-02-21T09:02:16;95165.81;;;23.63;53.89
31337;BME280;22846;42.654;23.314;2024-02-21T09:04:42;95170.06;;;23.64;53.83
31337;BME280;22846;42.654;23.314;2024-02-21T09:07:07;95166.59;;;23.63;54.31
31337;BME280;22846;42.654;23.314;2024-02-21T09:09:32;95174.00;;;23.63;53.79
31337;BME280;22846;42.654;23.314;2024-02-21T09:11:58;95187.66;;;23.63;54.21
31337;BME280;22846;42.654;23.314;2024-02-21T09:14:31;95178.25;;;23.64;53.98
31337;BME280;22846;42.654;23.314;2024-02-21T09:16:56;95178.69;;;23.62;53.68
31337;BME280;22846;42.654;23.314;2024-02-21T09:19:21;95181.41;;;23.62;54.08
31337;BME280;22846;42.654;23.314;2024-02-21T09:21:47;95174.41;;;23.61;54.00
31337;BME280;22846;42.654;23.314;2024-02-21T09:24:13;95177.13;;;23.61;54.32
31337;BME280;22846;42.654;23.314;2024-02-21T09:26:38;95170.94;;;23.61;54.22
31337;BME280;22846;42.654;23.314;2024-02-21T09:29:04;95177.94;;;23.62;54.32
31337;BME280;22846;42.654;23.314;2024-02-21T09:31:29;95144.97;;;23.53;54.01
31337;BME280;22846;42.654;23.314;2024-02-21T09:33:55;95162.75;;;23.61;53.84
31337;BME280;22846;42.654;23.314;2024-02-21T09:36:20;95165.47;;;23.61;53.81
31337;BME280;22846;42.654;23.314;2024-02-21T09:38:46;95174.41;;;23.61;54.43
31337;BME280;22846;42.654;23.314;2024-02-21T09:41:21;95170.94;;;23.61;53.74
31337;BME280;22846;42.654;23.314;2024-02-21T09:43:49;95144.31;;;23.45;54.36
31337;BME280;22846;42.654;23.314;2024-02-21T09:46:16;95173.66;;;23.61;54.17
31337;BME280;22846;42.654;23.314;2024-02-21T09:49:07;95156.03;;;23.46;54.17
31337;BME280;22846;42.654;23.314;2024-02-21T09:51:39;95165.47;;;23.61;54.58
31337;BME280;22846;42.654;23.314;2024-02-21T09:54:07;95176.03;;;23.59;52.85
31337;BME280;22846;42.654;23.314;2024-02-21T09:56:32;95157.91;;;23.49;53.81
31337;BME280;22846;42.654;23.314;2024-02-21T09:58:58;95165.09;;;23.59;52.91
31337;BME280;22846;42.654;23.314;2024-02-21T10:01:23;95167.84;;;23.59;52.56
31337;BME280;22846;42.654;23.314;2024-02-21T10:03:49;95163.94;;;23.60;53.68
31337;BME280;22846;42.654;23.314;2024-02-21T10:06:14;95128.16;;;23.35;52.77
31337;BME280;22846;42.654;23.314;2024-02-21T10:08:40;95150.06;;;23.51;54.62
31337;BME280;22846;42.654;23.314;2024-02-21T10:11:05;95144.25;;;23.49;53.65
31337;BME280;22846;42.654;23.314;2024-02-21T10:13:31;95163.94;;;23.60;53.99
31337;BME280;22846;42.654;23.314;2024-02-21T10:16:07;95158.91;;;23.58;53.59
31337;BME280;22846;42.654;23.314;2024-02-21T10:18:33;95140.34;;;23.50;53.75
31337;BME280;22846;42.654;23.314;2024-02-21T10:21:06;95139.50;;;23.53;53.48
31337;BME280;22846;42.654;23.314;2024-02-21T10:23:49;95153.00;;;23.60;53.75
31337;BME280;22846;42.654;23.314;2024-02-21T10:26:15;95149.09;;;23.61;53.88
31337;BME280;22846;42.654;23.314;2024-02-21T10:28:41;95123.22;;;23.49;53.72
31337;BME280;22846;42.654;23.314;2024-02-21T10:31:11;95130.75;;;23.61;53.47
31337;BME280;22846;42.654;23.314;2024-02-21T10:33:53;95136.22;;;23.61;54.52
31337;BME280;22846;42.654;23.314;2024-02-21T10:36:19;95120.63;;;23.62;54.23
31337;BME280;22846;42.654;23.314;2024-02-21T10:38:44;95117.47;;;23.63;54.34
31337;BME280;22846;42.654;23.314;2024-02-21T10:41:14;95106.97;;;23.62;54.62
31337;BME280;22846;42.654;23.314;2024-02-21T10:43:40;95092.34;;;23.52;53.53
31337;BME280;22846;42.654;23.314;2024-02-21T10:46:07;95101.84;;;23.64;54.15
31337;BME280;22846;42.654;23.314;2024-02-21T10:48:42;95091.81;;;23.61;52.91
31337;BME280;22846;42.654;23.314;2024-02-21T10:51:18;95087.09;;;23.61;54.05
31337;BME280;22846;42.654;23.314;2024-02-21T10:53:50;95085.09;;;23.65;53.45
31337;BME280;22846;42.654;23.314;2024-02-21T10:56:30;95085.44;;;23.67;53.56
31337;BME280;22846;42.654;23.314;2024-02-21T10:59:00;95081.50;;;23.68;53.89
31337;BME280;22846;42.654;23.314;2024-02-21T11:01:26;95079.13;;;23.70;54.16
31337;BME280;22846;42.654;23.314;2024-02-21T11:03:56;95067.09;;;23.68;53.40
31337;BME280;22846;42.654;23.314;2024-02-21T11:06:22;95068.19;;;23.70;53.94
31337;BME280;22846;42.654;23.314;2024-02-21T11:09:05;95063.84;;;23.73;53.25
31337;BME280;22846;42.654;23.314;2024-02-21T11:11:41;95063.06;;;23.76;53.89
31337;BME280;22846;42.654;23.314;2024-02-21T11:14:08;95061.09;;;23.76;53.66
31337;BME280;22846;42.654;23.314;2024-02-21T11:16:41;95049.09;;;23.70;54.20
31337;BME280;22846;42.654;23.314;2024-02-21T11:19:21;95035.19;;;23.65;53.99
31337;BME280;22846;42.654;23.314;2024-02-21T11:21:47;95058.63;;;23.82;54.08
31337;BME280;22846;42.654;23.314;2024-02-21T11:24:33;95064.09;;;23.82;54.30
31337;BME280;22846;42.654;23.314;2024-02-21T11:27:15;95061.72;;;23.84;53.87
31337;BME280;22846;42.654;23.314;2024-02-21T11:29:45;95053.59;;;23.80;53.64
31337;BME280;22846;42.654;23.314;2024-02-21T11:32:11;95053.16;;;23.82;53.62
31337;BME280;22846;42.654;23.314;2024-02-21T11:34:39;95051.56;;;23.84;53.66
31337;BME280;22846;42.654;23.314;2024-02-21T11:37:14;95048.50;;;23.82;53.13
31337;BME280;22846;42.654;23.314;2024-02-21T11:39:43;95048.50;;;23.82;53.46
31337;BME280;22846;42.654;23.314;2024-02-21T11:42:09;95053.16;;;23.82;53.59
31337;BME280;22846;42.654;23.314;2024-02-21T11:44:38;95051.66;;;23.81;53.26
31337;BME280;22846;42.654;23.314;2024-02-21T11:47:05;95039.50;;;23.82;53.42
31337;BME280;22846;42.654;23.314;2024-02-21T11:49:31;95026.03;;;23.75;53.54
31337;BME280;22846;42.654;23.314;2024-02-21T11:52:00;95013.34;;;23.65;53.73
31337;BME280;22846;42.654;23.314;2024-02-21T11:54:29;95032.59;;;23.77;53.88
31337;BME280;22846;42.654;23.314;2024-02-21T11:56:55;95019.16;;;23.67;53.54
31337;BME280;22846;42.654;23.314;2024-02-21T11:59:20;95026.81;;;23.75;53.57
31337;BME280;22846;42.654;23.314;2024-02-21T12:01:47;95031.09;;;23.76;53.56
31337;BME280;22846;42.654;23.314;2024-02-21T12:04:12;95034.22;;;23.75;54.03
31337;BME280;22846;42.654;23.314;2024-02-21T12:06:38;95031.50;;;23.75;53.69
31337;BME280;22846;42.654;23.314;2024-02-21T12:09:07;95031.50;;;23.75;53.96
31337;BME280;22846;42.654;23.314;2024-02-21T12:11:34;95027.63;;;23.72;53.82
31337;BME280;22846;42.654;23.314;2024-02-21T12:14:03;95024.19;;;23.68;53.67
31337;BME280;22846;42.654;23.314;2024-02-21T12:16:33;95026.09;;;23.71;53.91
31337;BME280;22846;42.654;23.314;2024-02-21T12:19:00;95018.69;;;23.72;53.91
31337;BME280;22846;42.654;23.314;2024-02-21T12:21:26;95003.56;;;23.67;53.54
31337;BME280;22846;42.654;23.314;2024-02-21T12:23:54;94951.81;;;23.28;53.67
31337;BME280;22846;42.654;23.314;2024-02-21T12:26:20;94992.56;;;23.55;53.69
31337;BME280;22846;42.654;23.314;2024-02-21T12:28:46;95016.78;;;23.69;53.41
31337;BME280;22846;42.654;23.314;2024-02-21T12:31:12;95004.56;;;23.57;53.69
31337;BME280;22846;42.654;23.314;2024-02-21T12:33:37;95017.97;;;23.68;53.71
31337;BME280;22846;42.654;23.314;2024-02-21T12:36:03;95009.03;;;23.67;53.93
31337;BME280;22846;42.654;23.314;2024-02-21T12:38:29;95006.72;;;23.66;53.42
31337;BME280;22846;42.654;23.314;2024-02-21T12:40:54;95006.03;;;23.62;53.53
31337;BME280;22846;42.654;23.314;2024-02-21T12:43:20;95004.50;;;23.61;53.78
31337;BME280;22846;42.654;23.314;2024-02-21T12:45:47;94987.94;;;23.52;53.80
31337;BME280;22846;42.654;23.314;2024-02-21T12:48:13;95009.88;;;23.64;53.59
31337;BME280;22846;42.654;23.314;2024-02-21T12:50:40;94962.19;;;23.33;53.28